sensor_id;sensor_type;location;lat;lon;timestamp;temperature;humidity
290;DHT22;13193;48.874;9.086;2023-01-20T00:01:24;1.10;1.00
290;DHT22;13193;48.874;9.086;2023-01-20T00:03:52;1.10;1.00
290;DHT22;13193;48.874;9.086;2023-01-20T00:06:18;1.10;1.00
290;DHT22;13193;48.874;9.086;2023-01-20T00:08:44;1.10;1.00
290;DHT22;13193;48.874;9.086;2023-01-20T00:11:11;1.10;1.00
290;DHT22;13193;48.874;9.086;2023-01-20T00:13:37;1.10;1.00
290;DHT22;13193;48.874;9.086;2023-01-20T00:16:08;1.20;1.00
290;DHT22;13193;48.874;9.086;2023-01-20T00:18:34;1.20;1.00
290;DHT22;13193;48.874;9.086;2023-01-20T00:21:05;1.20;1.00
290;DHT22;13193;48.874;9.086;2023-01-20T00:23:31;1.20;1.00
290;DHT22;13193;48.874;9.086;2023-01-20T00:25:57;1.20;1.00
290;DHT22;13193;48.874;9.086;2023-01-20T00:28:22;1.20;1.00
290;DHT22;13193;48.874;9.086;2023-01-20T00:30:48;1.20;1.00
290;DHT22;13193;48.874;9.086;2023-01-20T00:33:13;1.20;1.00
290;DHT22;13193;48.874;9.086;2023-01-20T00:35:39;1.20;1.00
290;DHT22;13193;48.874;9.086;2023-01-20T00:38:04;1.20;1.00
290;DHT22;13193;48.874;9.086;2023-01-20T00:40:30;1.20;1.00
290;DHT22;13193;48.874;9.086;2023-01-20T00:42:56;1.10;1.00
290;DHT22;13193;48.874;9.086;2023-01-20T00:45:21;1.20;1.00
290;DHT22;13193;48.874;9.086;2023-01-20T00:47:47;1.20;1.00
290;DHT22;13193;48.874;9.086;2023-01-20T00:50:12;1.20;1.00
290;DHT22;13193;48.874;9.086;2023-01-20T00:52:38;1.20;1.00
290;DHT22;13193;48.874;9.086;2023-01-20T00:55:04;1.20;1.00
290;DHT22;13193;48.874;9.086;2023-01-20T00:57:29;1.20;1.00
290;DHT22;13193;48.874;9.086;2023-01-20T00:59:55;1.30;1.00
290;DHT22;13193;48.874;9.086;2023-01-20T01:02:20;1.30;1.00
290;DHT22;13193;48.874;9.086;2023-01-20T01:04:49;1.30;1.00
290;DHT22;13193;48.874;9.086;2023-01-20T01:07:16;1.40;1.00
290;DHT22;13193;48.874;9.086;2023-01-20T01:09:41;1.40;1.00
290;DHT22;13193;48.874;9.086;2023-01-20T01:12:07;1.50;1.00
290;DHT22;13193;48.874;9.086;2023-01-20T01:14:32;1.50;1.00
290;DHT22;13193;48.874;9.086;2023-01-20T01:16:58;1.50;1.00
290;DHT22;13193;48.874;9.086;2023-01-20T01:19:24;1.50;1.00
290;DHT22;13193;48.874;9.086;2023-01-20T01:21:49;1.50;1.00
290;DHT22;13193;48.874;9.086;2023-01-20T01:24:15;1.60;1.00
290;DHT22;13193;48.874;9.086;2023-01-20T01:26:41;1.60;1.00
290;DHT22;13193;48.874;9.086;2023-01-20T01:29:06;1.60;1.00
290;DHT22;13193;48.874;9.086;2023-01-20T01:31:32;1.60;1.00
290;DHT22;13193;48.874;9.086;2023-01-20T01:33:57;1.60;1.00
290;DHT22;13193;48.874;9.086;2023-01-20T01:36:23;1.70;1.00
290;DHT22;13193;48.874;9.086;2023-01-20T01:38:48;1.60;1.00
290;DHT22;13193;48.874;9.086;2023-01-20T01:41:14;1.60;1.00
290;DHT22;13193;48.874;9.086;2023-01-20T01:46:24;1.60;1.00
290;DHT22;13193;48.874;9.086;2023-01-20T01:48:50;1.70;1.00
290;DHT22;13193;48.874;9.086;2023-01-20T01:51:20;1.70;1.00
290;DHT22;13193;48.874;9.086;2023-01-20T01:54:22;1.70;1.00
290;DHT22;13193;48.874;9.086;2023-01-20T01:56:49;1.70;1.00
290;DHT22;13193;48.874;9.086;2023-01-20T01:59:16;1.70;1.00
290;DHT22;13193;48.874;9.086;2023-01-20T02:01:44;1.70;1.00
290;DHT22;13193;48.874;9.086;2023-01-20T02:04:13;1.70;1.00
290;DHT22;13193;48.874;9.086;2023-01-20T02:06:43;1.80;1.00
290;DHT22;13193;48.874;9.086;2023-01-20T02:09:10;1.80;1.00
290;DHT22;13193;48.874;9.086;2023-01-20T02:11:42;1.80;1.00
290;DHT22;13193;48.874;9.086;2023-01-20T02:14:24;1.90;1.00
290;DHT22;13193;48.874;9.086;2023-01-20T02:17:03;1.90;1.00
290;DHT22;13193;48.874;9.086;2023-01-20T02:22:40;1.80;1.00
290;DHT22;13193;48.874;9.086;2023-01-20T02:25:16;1.80;1.00
290;DHT22;13193;48.874;9.086;2023-01-20T02:31:15;1.90;1.00
290;DHT22;13193;48.874;9.086;2023-01-20T02:39:29;2.00;1.00
290;DHT22;13193;48.874;9.086;2023-01-20T02:44:41;2.00;1.00
290;DHT22;13193;48.874;9.086;2023-01-20T02:50:18;2.00;1.00
290;DHT22;13193;48.874;9.086;2023-01-20T02:52:47;2.00;1.00
290;DHT22;13193;48.874;9.086;2023-01-20T02:55:29;2.00;1.00
290;DHT22;13193;48.874;9.086;2023-01-20T02:58:05;2.00;1.00
290;DHT22;13193;48.874;9.086;2023-01-20T03:00:36;2.00;1.00
290;DHT22;13193;48.874;9.086;2023-01-20T03:03:08;1.90;1.00
290;DHT22;13193;48.874;9.086;2023-01-20T03:05:40;2.00;1.00
290;DHT22;13193;48.874;9.086;2023-01-20T03:08:09;2.00;1.00
290;DHT22;13193;48.874;9.086;2023-01-20T03:10:37;2.00;1.00
290;DHT22;13193;48.874;9.086;2023-01-20T03:13:15;2.00;1.00
290;DHT22;13193;48.874;9.086;2023-01-20T03:15:59;2.00;1.00
290;DHT22;13193;48.874;9.086;2023-01-20T03:18:28;2.00;1.00
290;DHT22;13193;48.874;9.086;2023-01-20T03:20:54;2.00;1.00
290;DHT22;13193;48.874;9.086;2023-01-20T03:23:20;2.00;1.00
290;DHT22;13193;48.874;9.086;2023-01-20T03:25:46;2.00;1.00
290;DHT22;13193;48.874;9.086;2023-01-20T03:28:13;2.00;1.00
290;DHT22;13193;48.874;9.086;2023-01-20T03:30:39;1.90;1.00
290;DHT22;13193;48.874;9.086;2023-01-20T03:33:04;1.90;1.00
290;DHT22;13193;48.874;9.086;2023-01-20T03:35:32;1.90;1.00
290;DHT22;13193;48.874;9.086;2023-01-20T03:37:58;1.90;1.00
290;DHT22;13193;48.874;9.086;2023-01-20T03:40:26;1.90;1.00
290;DHT22;13193;48.874;9.086;2023-01-20T03:43:03;1.80;1.00
290;DHT22;13193;48.874;9.086;2023-01-20T03:45:45;1.70;1.00
290;DHT22;13193;48.874;9.086;2023-01-20T03:50:58;1.60;1.00
290;DHT22;13193;48.874;9.086;2023-01-20T03:53:51;1.50;1.00
290;DHT22;13193;48.874;9.086;2023-01-20T03:56:21;1.50;1.00
290;DHT22;13193;48.874;9.086;2023-01-20T03:58:51;1.40;1.00
290;DHT22;13193;48.874;9.086;2023-01-20T04:01:20;1.40;1.00
290;DHT22;13193;48.874;9.086;2023-01-20T04:03:50;1.30;1.00
290;DHT22;13193;48.874;9.086;2023-01-20T04:06:18;1.30;1.00
290;DHT22;13193;48.874;9.086;2023-01-20T04:09:04;1.30;1.00
290;DHT22;13193;48.874;9.086;2023-01-20T04:11:32;1.30;1.00
290;DHT22;13193;48.874;9.086;2023-01-20T04:13:58;1.30;1.00
290;DHT22;13193;48.874;9.086;2023-01-20T04:16:24;1.30;1.00
290;DHT22;13193;48.874;9.086;2023-01-20T04:18:51;1.30;1.00
290;DHT22;13193;48.874;9.086;2023-01-20T04:21:40;1.20;1.00
290;DHT22;13193;48.874;9.086;2023-01-20T04:27:09;1.10;1.00
290;DHT22;13193;48.874;9.086;2023-01-20T04:29:34;1.00;1.00
290;DHT22;13193;48.874;9.086;2023-01-20T04:32:01;0.90;1.00
290;DHT22;13193;48.874;9.086;2023-01-20T04:34:27;0.90;1.00
290;DHT22;13193;48.874;9.086;2023-01-20T04:36:52;0.90;1.00
290;DHT22;13193;48.874;9.086;2023-01-20T04:39:18;0.90;1.00
290;DHT22;13193;48.874;9.086;2023-01-20T04:41:44;0.90;1.00
290;DHT22;13193;48.874;9.086;2023-01-20T04:44:10;0.90;1.00
290;DHT22;13193;48.874;9.086;2023-01-20T04:46:36;0.80;1.00
290;DHT22;13193;48.874;9.086;2023-01-20T04:49:01;0.80;1.00
290;DHT22;13193;48.874;9.086;2023-01-20T04:51:27;0.90;1.00
290;DHT22;13193;48.874;9.086;2023-01-20T04:53:56;0.90;1.00
290;DHT22;13193;48.874;9.086;2023-01-20T04:56:22;0.90;1.00
290;DHT22;13193;48.874;9.086;2023-01-20T04:58:48;0.90;1.00
290;DHT22;13193;48.874;9.086;2023-01-20T05:01:13;0.90;1.00
290;DHT22;13193;48.874;9.086;2023-01-20T05:03:39;0.90;1.00
290;DHT22;13193;48.874;9.086;2023-01-20T05:06:05;0.90;1.00
290;DHT22;13193;48.874;9.086;2023-01-20T05:08:31;0.90;1.00
290;DHT22;13193;48.874;9.086;2023-01-20T05:10:57;1.20;1.00
290;DHT22;13193;48.874;9.086;2023-01-20T05:13:22;0.80;1.00
290;DHT22;13193;48.874;9.086;2023-01-20T05:15:48;0.80;1.00
290;DHT22;13193;48.874;9.086;2023-01-20T05:18:15;0.80;1.00
290;DHT22;13193;48.874;9.086;2023-01-20T05:20:42;0.80;1.00
290;DHT22;13193;48.874;9.086;2023-01-20T05:23:08;0.80;1.00
290;DHT22;13193;48.874;9.086;2023-01-20T05:25:34;0.80;1.00
290;DHT22;13193;48.874;9.086;2023-01-20T05:27:59;0.70;1.00
290;DHT22;13193;48.874;9.086;2023-01-20T05:30:25;0.70;1.00
290;DHT22;13193;48.874;9.086;2023-01-20T05:32:50;0.70;1.00
290;DHT22;13193;48.874;9.086;2023-01-20T05:35:16;0.70;1.00
290;DHT22;13193;48.874;9.086;2023-01-20T05:37:42;0.70;1.00
290;DHT22;13193;48.874;9.086;2023-01-20T05:40:09;0.70;1.00
290;DHT22;13193;48.874;9.086;2023-01-20T05:42:34;0.80;1.00
290;DHT22;13193;48.874;9.086;2023-01-20T05:45:00;0.80;1.00
290;DHT22;13193;48.874;9.086;2023-01-20T05:47:26;0.80;1.00
290;DHT22;13193;48.874;9.086;2023-01-20T05:49:51;0.90;1.00
290;DHT22;13193;48.874;9.086;2023-01-20T05:52:17;0.90;1.00
290;DHT22;13193;48.874;9.086;2023-01-20T05:54:44;0.90;1.00
290;DHT22;13193;48.874;9.086;2023-01-20T05:57:09;1.10;1.00
290;DHT22;13193;48.874;9.086;2023-01-20T05:59:35;1.40;1.00
290;DHT22;13193;48.874;9.086;2023-01-20T06:02:01;1.10;1.00
290;DHT22;13193;48.874;9.086;2023-01-20T06:04:26;1.10;1.00
290;DHT22;13193;48.874;9.086;2023-01-20T06:06:52;1.20;1.00
290;DHT22;13193;48.874;9.086;2023-01-20T06:09:17;1.20;1.00
290;DHT22;13193;48.874;9.086;2023-01-20T06:11:43;1.10;1.00
290;DHT22;13193;48.874;9.086;2023-01-20T06:14:09;1.10;1.00
290;DHT22;13193;48.874;9.086;2023-01-20T06:16:34;1.00;1.00
290;DHT22;13193;48.874;9.086;2023-01-20T06:19:00;0.90;1.00
290;DHT22;13193;48.874;9.086;2023-01-20T06:21:25;0.90;1.00
290;DHT22;13193;48.874;9.086;2023-01-20T06:23:52;0.80;1.00
290;DHT22;13193;48.874;9.086;2023-01-20T06:26:18;0.70;1.00
290;DHT22;13193;48.874;9.086;2023-01-20T06:28:44;0.60;1.00
290;DHT22;13193;48.874;9.086;2023-01-20T06:31:14;0.50;1.00
290;DHT22;13193;48.874;9.086;2023-01-20T06:33:41;0.40;1.00
290;DHT22;13193;48.874;9.086;2023-01-20T06:36:08;0.30;1.00
290;DHT22;13193;48.874;9.086;2023-01-20T06:38:35;0.10;1.00
290;DHT22;13193;48.874;9.086;2023-01-20T06:41:03;0.00;1.00
290;DHT22;13193;48.874;9.086;2023-01-20T06:43:30;-0.10;1.00
290;DHT22;13193;48.874;9.086;2023-01-20T06:46:14;-0.20;1.00
290;DHT22;13193;48.874;9.086;2023-01-20T06:48:41;-0.30;1.00
290;DHT22;13193;48.874;9.086;2023-01-20T06:51:12;-0.40;1.00
290;DHT22;13193;48.874;9.086;2023-01-20T06:53:38;-0.50;1.00
290;DHT22;13193;48.874;9.086;2023-01-20T06:56:04;-0.60;1.00
290;DHT22;13193;48.874;9.086;2023-01-20T06:58:31;-0.60;1.00
290;DHT22;13193;48.874;9.086;2023-01-20T07:01:03;-0.70;1.00
290;DHT22;13193;48.874;9.086;2023-01-20T07:03:29;-0.70;1.00
290;DHT22;13193;48.874;9.086;2023-01-20T07:06:01;-0.70;1.00
290;DHT22;13193;48.874;9.086;2023-01-20T07:08:27;-0.70;1.00
290;DHT22;13193;48.874;9.086;2023-01-20T07:10:53;-0.80;1.00
290;DHT22;13193;48.874;9.086;2023-01-20T07:13:19;-0.90;1.00
290;DHT22;13193;48.874;9.086;2023-01-20T07:15:44;-0.90;1.00
290;DHT22;13193;48.874;9.086;2023-01-20T07:18:10;-0.90;1.00
290;DHT22;13193;48.874;9.086;2023-01-20T07:20:36;-0.90;1.00
290;DHT22;13193;48.874;9.086;2023-01-20T07:23:03;-0.90;1.00
290;DHT22;13193;48.874;9.086;2023-01-20T07:25:29;-0.90;1.00
290;DHT22;13193;48.874;9.086;2023-01-20T07:27:55;-0.90;1.00
290;DHT22;13193;48.874;9.086;2023-01-20T07:30:22;-0.80;1.00
290;DHT22;13193;48.874;9.086;2023-01-20T07:32:48;-0.80;1.00
290;DHT22;13193;48.874;9.086;2023-01-20T07:35:14;-0.80;1.00
290;DHT22;13193;48.874;9.086;2023-01-20T07:37:39;-0.80;1.00
290;DHT22;13193;48.874;9.086;2023-01-20T07:40:06;-0.80;1.00
290;DHT22;13193;48.874;9.086;2023-01-20T07:42:32;-0.80;1.00
290;DHT22;13193;48.874;9.086;2023-01-20T07:44:57;-0.80;1.00
290;DHT22;13193;48.874;9.086;2023-01-20T07:47:23;-0.70;1.00
290;DHT22;13193;48.874;9.086;2023-01-20T07:49:48;-0.70;1.00
290;DHT22;13193;48.874;9.086;2023-01-20T07:52:14;-0.60;1.00
290;DHT22;13193;48.874;9.086;2023-01-20T07:54:40;-0.60;1.00
290;DHT22;13193;48.874;9.086;2023-01-20T07:57:05;-0.50;1.00
290;DHT22;13193;48.874;9.086;2023-01-20T07:59:33;-0.40;1.00
290;DHT22;13193;48.874;9.086;2023-01-20T08:01:58;-0.30;1.00
290;DHT22;13193;48.874;9.086;2023-01-20T08:04:24;-0.30;1.00
290;DHT22;13193;48.874;9.086;2023-01-20T08:06:49;-0.10;1.00
290;DHT22;13193;48.874;9.086;2023-01-20T08:09:15;-0.10;1.00
290;DHT22;13193;48.874;9.086;2023-01-20T08:11:41;0.00;1.00
290;DHT22;13193;48.874;9.086;2023-01-20T08:14:06;0.00;1.00
290;DHT22;13193;48.874;9.086;2023-01-20T08:16:32;0.10;1.00
290;DHT22;13193;48.874;9.086;2023-01-20T08:18:57;0.10;1.00
290;DHT22;13193;48.874;9.086;2023-01-20T08:21:24;0.10;1.00
290;DHT22;13193;48.874;9.086;2023-01-20T08:23:51;0.10;1.00
290;DHT22;13193;48.874;9.086;2023-01-20T08:26:17;0.10;1.00
290;DHT22;13193;48.874;9.086;2023-01-20T08:28:43;0.10;1.00
290;DHT22;13193;48.874;9.086;2023-01-20T08:31:11;0.00;1.00
290;DHT22;13193;48.874;9.086;2023-01-20T08:33:38;0.00;1.00
290;DHT22;13193;48.874;9.086;2023-01-20T08:38:59;-0.10;1.00
290;DHT22;13193;48.874;9.086;2023-01-20T08:41:29;-0.20;1.00
290;DHT22;13193;48.874;9.086;2023-01-20T08:43:57;-0.20;1.00
290;DHT22;13193;48.874;9.086;2023-01-20T08:46:23;-0.20;1.00
290;DHT22;13193;48.874;9.086;2023-01-20T08:48:50;-0.20;1.00
290;DHT22;13193;48.874;9.086;2023-01-20T08:51:21;-0.20;1.00
290;DHT22;13193;48.874;9.086;2023-01-20T08:53:47;-0.20;1.00
290;DHT22;13193;48.874;9.086;2023-01-20T08:56:14;-0.20;1.00
290;DHT22;13193;48.874;9.086;2023-01-20T08:58:40;-0.20;1.00
290;DHT22;13193;48.874;9.086;2023-01-20T09:01:18;-0.20;1.00
290;DHT22;13193;48.874;9.086;2023-01-20T09:03:44;-0.20;1.00
290;DHT22;13193;48.874;9.086;2023-01-20T09:06:10;-0.20;1.00
290;DHT22;13193;48.874;9.086;2023-01-20T09:08:37;-0.10;1.00
290;DHT22;13193;48.874;9.086;2023-01-20T09:11:11;-0.10;1.00
290;DHT22;13193;48.874;9.086;2023-01-20T09:13:38;0.00;1.00
290;DHT22;13193;48.874;9.086;2023-01-20T09:16:05;0.00;1.00
290;DHT22;13193;48.874;9.086;2023-01-20T09:18:31;0.00;1.00
290;DHT22;13193;48.874;9.086;2023-01-20T09:20:57;0.10;1.00
290;DHT22;13193;48.874;9.086;2023-01-20T09:23:24;0.10;1.00
290;DHT22;13193;48.874;9.086;2023-01-20T09:25:49;0.20;1.00
290;DHT22;13193;48.874;9.086;2023-01-20T09:28:15;0.20;1.00
290;DHT22;13193;48.874;9.086;2023-01-20T09:30:41;0.30;1.00
290;DHT22;13193;48.874;9.086;2023-01-20T09:33:09;0.30;1.00
290;DHT22;13193;48.874;9.086;2023-01-20T09:35:35;0.40;1.00
290;DHT22;13193;48.874;9.086;2023-01-20T09:38:01;0.50;1.00
290;DHT22;13193;48.874;9.086;2023-01-20T09:47:01;0.70;1.00
290;DHT22;13193;48.874;9.086;2023-01-20T09:52:47;0.90;1.00
290;DHT22;13193;48.874;9.086;2023-01-20T09:55:53;1.00;1.00
290;DHT22;13193;48.874;9.086;2023-01-20T09:58:51;1.10;1.00
290;DHT22;13193;48.874;9.086;2023-01-20T10:01:29;1.20;1.00
290;DHT22;13193;48.874;9.086;2023-01-20T10:06:57;1.40;1.00
290;DHT22;13193;48.874;9.086;2023-01-20T10:12:18;1.50;1.00
290;DHT22;13193;48.874;9.086;2023-01-20T10:14:52;1.60;1.00
290;DHT22;13193;48.874;9.086;2023-01-20T10:17:41;1.70;1.00
290;DHT22;13193;48.874;9.086;2023-01-20T10:20:19;1.80;1.00
290;DHT22;13193;48.874;9.086;2023-01-20T10:25:37;2.00;1.00
290;DHT22;13193;48.874;9.086;2023-01-20T10:28:25;2.00;1.00
290;DHT22;13193;48.874;9.086;2023-01-20T10:30:51;2.00;1.00
290;DHT22;13193;48.874;9.086;2023-01-20T10:33:29;2.10;1.00
290;DHT22;13193;48.874;9.086;2023-01-20T10:35:58;2.10;1.00
290;DHT22;13193;48.874;9.086;2023-01-20T10:43:40;2.40;1.00
290;DHT22;13193;48.874;9.086;2023-01-20T10:54:37;2.50;1.00
290;DHT22;13193;48.874;9.086;2023-01-20T10:57:11;2.60;1.00
290;DHT22;13193;48.874;9.086;2023-01-20T10:59:41;2.70;1.00
290;DHT22;13193;48.874;9.086;2023-01-20T11:02:31;2.70;1.00
290;DHT22;13193;48.874;9.086;2023-01-20T11:05:29;2.70;1.00
290;DHT22;13193;48.874;9.086;2023-01-20T11:07:56;2.80;1.00
290;DHT22;13193;48.874;9.086;2023-01-20T11:10:25;2.90;1.00
290;DHT22;13193;48.874;9.086;2023-01-20T11:12:54;2.90;1.00
290;DHT22;13193;48.874;9.086;2023-01-20T11:15:32;3.00;1.00
290;DHT22;13193;48.874;9.086;2023-01-20T11:25:55;3.50;1.00
290;DHT22;13193;48.874;9.086;2023-01-20T11:28:21;3.70;1.00
290;DHT22;13193;48.874;9.086;2023-01-20T11:30:53;3.80;1.00
290;DHT22;13193;48.874;9.086;2023-01-20T11:36:04;4.10;1.00
290;DHT22;13193;48.874;9.086;2023-01-20T11:38:44;4.10;1.00
290;DHT22;13193;48.874;9.086;2023-01-20T11:43:51;3.90;1.00
290;DHT22;13193;48.874;9.086;2023-01-20T11:48:47;3.90;1.00
290;DHT22;13193;48.874;9.086;2023-01-20T11:51:24;3.90;1.00
290;DHT22;13193;48.874;9.086;2023-01-20T11:53:50;3.80;1.00
290;DHT22;13193;48.874;9.086;2023-01-20T11:56:23;3.90;1.00
290;DHT22;13193;48.874;9.086;2023-01-20T11:58:59;3.90;1.00
290;DHT22;13193;48.874;9.086;2023-01-20T12:01:28;4.00;1.00
290;DHT22;13193;48.874;9.086;2023-01-20T12:06:52;4.00;1.00
290;DHT22;13193;48.874;9.086;2023-01-20T12:09:24;4.10;1.00
290;DHT22;13193;48.874;9.086;2023-01-20T12:12:46;4.20;1.00
290;DHT22;13193;48.874;9.086;2023-01-20T12:14:56;4.10;1.00
290;DHT22;13193;48.874;9.086;2023-01-20T12:25:26;4.30;1.00
290;DHT22;13193;48.874;9.086;2023-01-20T12:28:00;4.30;1.00
290;DHT22;13193;48.874;9.086;2023-01-20T12:33:20;4.40;1.00
290;DHT22;13193;48.874;9.086;2023-01-20T12:38:44;4.70;1.00
290;DHT22;13193;48.874;9.086;2023-01-20T12:41:41;4.80;1.00
290;DHT22;13193;48.874;9.086;2023-01-20T12:53:07;5.10;1.00
290;DHT22;13193;48.874;9.086;2023-01-20T12:58:49;5.00;1.00
290;DHT22;13193;48.874;9.086;2023-01-20T13:15:45;4.80;1.00
290;DHT22;13193;48.874;9.086;2023-01-20T13:20:46;5.10;1.00
290;DHT22;13193;48.874;9.086;2023-01-20T13:23:14;5.30;1.00
290;DHT22;13193;48.874;9.086;2023-01-20T13:25:43;5.30;1.00
290;DHT22;13193;48.874;9.086;2023-01-20T13:28:23;5.50;1.00
290;DHT22;13193;48.874;9.086;2023-01-20T13:30:52;5.50;1.00
290;DHT22;13193;48.874;9.086;2023-01-20T13:33:37;5.50;1.00
290;DHT22;13193;48.874;9.086;2023-01-20T13:36:16;5.60;1.00
290;DHT22;13193;48.874;9.086;2023-01-20T13:38:42;5.50;1.00
290;DHT22;13193;48.874;9.086;2023-01-20T13:41:08;5.50;1.00
290;DHT22;13193;48.874;9.086;2023-01-20T13:48:37;5.20;1.00
290;DHT22;13193;48.874;9.086;2023-01-20T13:53:52;5.00;1.00
290;DHT22;13193;48.874;9.086;2023-01-20T13:56:28;4.90;1.00
290;DHT22;13193;48.874;9.086;2023-01-20T13:58:55;4.80;1.00
290;DHT22;13193;48.874;9.086;2023-01-20T14:01:23;4.70;1.00
290;DHT22;13193;48.874;9.086;2023-01-20T14:04:04;4.60;1.00
290;DHT22;13193;48.874;9.086;2023-01-20T14:06:30;4.30;1.00
290;DHT22;13193;48.874;9.086;2023-01-20T14:08:58;4.10;1.00
290;DHT22;13193;48.874;9.086;2023-01-20T14:11:27;4.00;1.00
290;DHT22;13193;48.874;9.086;2023-01-20T14:14:00;3.90;1.00
290;DHT22;13193;48.874;9.086;2023-01-20T14:16:28;3.70;1.00
290;DHT22;13193;48.874;9.086;2023-01-20T14:18:59;3.60;1.00
290;DHT22;13193;48.874;9.086;2023-01-20T14:21:29;3.50;1.00
290;DHT22;13193;48.874;9.086;2023-01-20T14:23:56;3.50;1.00
290;DHT22;13193;48.874;9.086;2023-01-20T14:26:29;3.40;1.00
290;DHT22;13193;48.874;9.086;2023-01-20T14:28:57;3.40;1.00
290;DHT22;13193;48.874;9.086;2023-01-20T14:31:32;3.30;1.00
290;DHT22;13193;48.874;9.086;2023-01-20T14:34:29;3.20;1.00
290;DHT22;13193;48.874;9.086;2023-01-20T14:36:58;3.20;1.00
290;DHT22;13193;48.874;9.086;2023-01-20T14:39:26;3.20;1.00
290;DHT22;13193;48.874;9.086;2023-01-20T14:41:57;3.10;1.00
290;DHT22;13193;48.874;9.086;2023-01-20T14:44:28;3.10;1.00
290;DHT22;13193;48.874;9.086;2023-01-20T14:46:58;3.10;1.00
290;DHT22;13193;48.874;9.086;2023-01-20T14:49:35;3.00;1.00
290;DHT22;13193;48.874;9.086;2023-01-20T14:52:05;3.00;1.00
290;DHT22;13193;48.874;9.086;2023-01-20T14:56:58;2.90;1.00
290;DHT22;13193;48.874;9.086;2023-01-20T14:59:24;2.90;1.00
290;DHT22;13193;48.874;9.086;2023-01-20T15:01:55;2.90;1.00
290;DHT22;13193;48.874;9.086;2023-01-20T15:04:23;2.80;1.00
290;DHT22;13193;48.874;9.086;2023-01-20T15:06:56;2.80;1.00
290;DHT22;13193;48.874;9.086;2023-01-20T15:09:32;2.80;1.00
290;DHT22;13193;48.874;9.086;2023-01-20T15:12:30;2.70;1.00
290;DHT22;13193;48.874;9.086;2023-01-20T15:17:31;2.60;1.00
290;DHT22;13193;48.874;9.086;2023-01-20T15:19:57;2.60;1.00
290;DHT22;13193;48.874;9.086;2023-01-20T15:22:25;2.50;1.00
290;DHT22;13193;48.874;9.086;2023-01-20T15:24:51;2.40;1.00
290;DHT22;13193;48.874;9.086;2023-01-20T15:27:36;2.30;1.00
290;DHT22;13193;48.874;9.086;2023-01-20T15:30:15;2.20;1.00
290;DHT22;13193;48.874;9.086;2023-01-20T15:32:41;2.10;1.00
290;DHT22;13193;48.874;9.086;2023-01-20T15:35:10;2.00;1.00
290;DHT22;13193;48.874;9.086;2023-01-20T15:37:36;2.00;1.00
290;DHT22;13193;48.874;9.086;2023-01-20T15:40:02;1.90;1.00
290;DHT22;13193;48.874;9.086;2023-01-20T15:42:28;1.90;1.00
290;DHT22;13193;48.874;9.086;2023-01-20T15:44:53;1.80;1.00
290;DHT22;13193;48.874;9.086;2023-01-20T15:47:24;1.70;1.00
290;DHT22;13193;48.874;9.086;2023-01-20T15:49:53;1.70;1.00
290;DHT22;13193;48.874;9.086;2023-01-20T15:52:19;1.60;1.00
290;DHT22;13193;48.874;9.086;2023-01-20T15:54:44;1.60;1.00
290;DHT22;13193;48.874;9.086;2023-01-20T15:57:14;1.50;1.00
290;DHT22;13193;48.874;9.086;2023-01-20T15:59:41;1.50;1.00
290;DHT22;13193;48.874;9.086;2023-01-20T16:02:20;1.50;1.00
290;DHT22;13193;48.874;9.086;2023-01-20T16:04:46;1.40;1.00
290;DHT22;13193;48.874;9.086;2023-01-20T16:07:17;1.40;1.00
290;DHT22;13193;48.874;9.086;2023-01-20T16:09:43;1.30;1.00
290;DHT22;13193;48.874;9.086;2023-01-20T16:12:16;1.20;1.00
290;DHT22;13193;48.874;9.086;2023-01-20T16:14:43;1.20;1.00
290;DHT22;13193;48.874;9.086;2023-01-20T16:17:16;1.00;1.00
290;DHT22;13193;48.874;9.086;2023-01-20T16:19:42;0.90;1.00
290;DHT22;13193;48.874;9.086;2023-01-20T16:22:08;0.90;1.00
290;DHT22;13193;48.874;9.086;2023-01-20T16:24:35;0.80;1.00
290;DHT22;13193;48.874;9.086;2023-01-20T16:27:02;0.70;1.00
290;DHT22;13193;48.874;9.086;2023-01-20T16:29:29;0.60;1.00
290;DHT22;13193;48.874;9.086;2023-01-20T16:31:54;0.60;1.00
290;DHT22;13193;48.874;9.086;2023-01-20T16:34:20;0.50;1.00
290;DHT22;13193;48.874;9.086;2023-01-20T16:36:45;0.50;1.00
290;DHT22;13193;48.874;9.086;2023-01-20T16:39:11;0.30;1.00
290;DHT22;13193;48.874;9.086;2023-01-20T16:41:37;0.30;1.00
290;DHT22;13193;48.874;9.086;2023-01-20T16:44:03;0.20;1.00
290;DHT22;13193;48.874;9.086;2023-01-20T16:46:30;0.10;1.00
290;DHT22;13193;48.874;9.086;2023-01-20T16:48:57;0.20;1.00
290;DHT22;13193;48.874;9.086;2023-01-20T16:51:28;0.10;1.00
290;DHT22;13193;48.874;9.086;2023-01-20T16:53:54;0.00;1.00
290;DHT22;13193;48.874;9.086;2023-01-20T16:56:25;0.00;1.00
290;DHT22;13193;48.874;9.086;2023-01-20T16:58:53;-0.10;1.00
290;DHT22;13193;48.874;9.086;2023-01-20T17:01:20;0.00;1.00
290;DHT22;13193;48.874;9.086;2023-01-20T17:03:55;-0.20;1.00
290;DHT22;13193;48.874;9.086;2023-01-20T17:06:24;-0.20;1.00
290;DHT22;13193;48.874;9.086;2023-01-20T17:08:52;-0.20;1.00
290;DHT22;13193;48.874;9.086;2023-01-20T17:11:23;-0.30;1.00
290;DHT22;13193;48.874;9.086;2023-01-20T17:13:49;-0.30;1.00
290;DHT22;13193;48.874;9.086;2023-01-20T17:16:16;-0.30;1.00
290;DHT22;13193;48.874;9.086;2023-01-20T17:18:41;-0.40;1.00
290;DHT22;13193;48.874;9.086;2023-01-20T17:21:11;-0.40;1.00
290;DHT22;13193;48.874;9.086;2023-01-20T17:23:38;-0.40;1.00
290;DHT22;13193;48.874;9.086;2023-01-20T17:26:05;-0.40;1.00
290;DHT22;13193;48.874;9.086;2023-01-20T17:28:31;-0.50;1.00
290;DHT22;13193;48.874;9.086;2023-01-20T17:31:01;-0.50;1.00
290;DHT22;13193;48.874;9.086;2023-01-20T17:33:27;-0.50;1.00
290;DHT22;13193;48.874;9.086;2023-01-20T17:35:59;-0.60;1.00
290;DHT22;13193;48.874;9.086;2023-01-20T17:38:27;-0.60;1.00
290;DHT22;13193;48.874;9.086;2023-01-20T17:40:53;-0.60;1.00
290;DHT22;13193;48.874;9.086;2023-01-20T17:43:18;-0.60;1.00
290;DHT22;13193;48.874;9.086;2023-01-20T17:45:44;-0.60;1.00
290;DHT22;13193;48.874;9.086;2023-01-20T17:48:10;-0.60;1.00
290;DHT22;13193;48.874;9.086;2023-01-20T17:50:35;-0.60;1.00
290;DHT22;13193;48.874;9.086;2023-01-20T17:53:03;-0.70;1.00
290;DHT22;13193;48.874;9.086;2023-01-20T17:55:28;-0.80;1.00
290;DHT22;13193;48.874;9.086;2023-01-20T17:57:54;-0.80;1.00
290;DHT22;13193;48.874;9.086;2023-01-20T18:00:20;-0.90;1.00
290;DHT22;13193;48.874;9.086;2023-01-20T18:02:46;-0.90;1.00
290;DHT22;13193;48.874;9.086;2023-01-20T18:05:11;-0.90;1.00
290;DHT22;13193;48.874;9.086;2023-01-20T18:07:37;-0.90;1.00
290;DHT22;13193;48.874;9.086;2023-01-20T18:10:03;-1.00;1.00
290;DHT22;13193;48.874;9.086;2023-01-20T18:12:29;-1.00;1.00
290;DHT22;13193;48.874;9.086;2023-01-20T18:14:55;-1.00;1.00
290;DHT22;13193;48.874;9.086;2023-01-20T18:17:23;-1.00;1.00
290;DHT22;13193;48.874;9.086;2023-01-20T18:19:48;-1.10;1.00
290;DHT22;13193;48.874;9.086;2023-01-20T18:22:14;-1.10;1.00
290;DHT22;13193;48.874;9.086;2023-01-20T18:24:40;-1.10;1.00
290;DHT22;13193;48.874;9.086;2023-01-20T18:27:06;-1.10;1.00
290;DHT22;13193;48.874;9.086;2023-01-20T18:29:31;-1.10;1.00
290;DHT22;13193;48.874;9.086;2023-01-20T18:32:01;-1.10;1.00
290;DHT22;13193;48.874;9.086;2023-01-20T18:34:26;-1.10;1.00
290;DHT22;13193;48.874;9.086;2023-01-20T18:36:52;-1.10;1.00
290;DHT22;13193;48.874;9.086;2023-01-20T18:39:23;-1.10;1.00
290;DHT22;13193;48.874;9.086;2023-01-20T18:41:49;-1.10;1.00
290;DHT22;13193;48.874;9.086;2023-01-20T18:44:16;-1.10;1.00
290;DHT22;13193;48.874;9.086;2023-01-20T18:46:42;-1.00;1.00
290;DHT22;13193;48.874;9.086;2023-01-20T18:49:14;-1.00;1.00
290;DHT22;13193;48.874;9.086;2023-01-20T18:51:40;-0.90;1.00
290;DHT22;13193;48.874;9.086;2023-01-20T18:54:15;-0.90;1.00
290;DHT22;13193;48.874;9.086;2023-01-20T18:56:42;-0.90;1.00